sensor_id;sensor_type;location;lat;lon;timestamp;temperature;humidity
7290;DHT22;63176;52.678;13.250;2022-09-09T00:00:43;15.30;99.90
7290;DHT22;63176;52.678;13.250;2022-09-09T00:03:18;15.30;99.90
7290;DHT22;63176;52.678;13.250;2022-09-09T00:06:04;15.30;99.90
7290;DHT22;63176;52.678;13.250;2022-09-09T00:11:16;15.20;99.90
7290;DHT22;63176;52.678;13.250;2022-09-09T00:13:48;15.20;99.90
7290;DHT22;63176;52.678;13.250;2022-09-09T00:16:20;15.20;99.90
7290;DHT22;63176;52.678;13.250;2022-09-09T00:19:18;15.20;99.90
7290;DHT22;63176;52.678;13.250;2022-09-09T00:22:04;15.20;99.90
7290;DHT22;63176;52.678;13.250;2022-09-09T00:27:25;15.20;99.90
7290;DHT22;63176;52.678;13.250;2022-09-09T00:30:14;15.10;99.90
7290;DHT22;63176;52.678;13.250;2022-09-09T00:32:40;15.10;99.90
7290;DHT22;63176;52.678;13.250;2022-09-09T00:37:44;15.10;99.90
7290;DHT22;63176;52.678;13.250;2022-09-09T00:40:35;15.00;99.90
7290;DHT22;63176;52.678;13.250;2022-09-09T00:48:50;15.00;99.90
7290;DHT22;63176;52.678;13.250;2022-09-09T00:51:35;15.00;99.90
7290;DHT22;63176;52.678;13.250;2022-09-09T01:04:54;14.90;99.90
7290;DHT22;63176;52.678;13.250;2022-09-09T01:07:20;14.90;99.90
7290;DHT22;63176;52.678;13.250;2022-09-09T01:10:06;14.90;99.90
7290;DHT22;63176;52.678;13.250;2022-09-09T01:12:43;14.90;99.90
7290;DHT22;63176;52.678;13.250;2022-09-09T01:15:26;14.90;99.90
7290;DHT22;63176;52.678;13.250;2022-09-09T01:18:05;14.80;99.90
7290;DHT22;63176;52.678;13.250;2022-09-09T01:26:27;14.80;99.90
7290;DHT22;63176;52.678;13.250;2022-09-09T01:28:55;14.80;99.90
7290;DHT22;63176;52.678;13.250;2022-09-09T01:31:41;14.80;99.90
7290;DHT22;63176;52.678;13.250;2022-09-09T01:34:13;14.80;99.90
7290;DHT22;63176;52.678;13.250;2022-09-09T01:37:07;14.80;99.90
7290;DHT22;63176;52.678;13.250;2022-09-09T01:39:34;14.70;99.90
7290;DHT22;63176;52.678;13.250;2022-09-09T01:42:02;14.70;99.90
7290;DHT22;63176;52.678;13.250;2022-09-09T01:44:29;14.70;99.90
7290;DHT22;63176;52.678;13.250;2022-09-09T01:46:55;14.60;99.90
7290;DHT22;63176;52.678;13.250;2022-09-09T01:49:21;14.60;99.90
7290;DHT22;63176;52.678;13.250;2022-09-09T01:51:51;14.60;99.90
7290;DHT22;63176;52.678;13.250;2022-09-09T01:54:19;14.60;99.90
7290;DHT22;63176;52.678;13.250;2022-09-09T02:04:47;14.50;99.90
7290;DHT22;63176;52.678;13.250;2022-09-09T02:09:48;14.40;99.90
7290;DHT22;63176;52.678;13.250;2022-09-09T02:12:17;14.40;99.90
7290;DHT22;63176;52.678;13.250;2022-09-09T02:14:52;14.30;99.90
7290;DHT22;63176;52.678;13.250;2022-09-09T02:17:27;14.30;99.90
7290;DHT22;63176;52.678;13.250;2022-09-09T02:20:10;14.30;99.90
7290;DHT22;63176;52.678;13.250;2022-09-09T02:22:39;14.30;99.90
7290;DHT22;63176;52.678;13.250;2022-09-09T02:25:08;14.30;99.90
7290;DHT22;63176;52.678;13.250;2022-09-09T02:27:35;14.30;99.90
7290;DHT22;63176;52.678;13.250;2022-09-09T02:30:02;14.30;99.90
7290;DHT22;63176;52.678;13.250;2022-09-09T02:32:29;14.20;99.90
7290;DHT22;63176;52.678;13.250;2022-09-09T02:35:00;14.20;99.90
7290;DHT22;63176;52.678;13.250;2022-09-09T02:37:32;14.30;99.90
7290;DHT22;63176;52.678;13.250;2022-09-09T02:40:02;14.30;99.90
7290;DHT22;63176;52.678;13.250;2022-09-09T02:42:28;14.20;99.90
7290;DHT22;63176;52.678;13.250;2022-09-09T02:44:53;14.20;99.90
7290;DHT22;63176;52.678;13.250;2022-09-09T02:50:08;14.20;99.90
7290;DHT22;63176;52.678;13.250;2022-09-09T02:58:09;14.20;99.90
7290;DHT22;63176;52.678;13.250;2022-09-09T03:00:38;14.20;99.90
7290;DHT22;63176;52.678;13.250;2022-09-09T03:03:07;14.10;99.90
7290;DHT22;63176;52.678;13.250;2022-09-09T03:05:34;14.20;99.90
7290;DHT22;63176;52.678;13.250;2022-09-09T03:07:59;14.10;99.90
7290;DHT22;63176;52.678;13.250;2022-09-09T03:10:25;14.20;99.90
7290;DHT22;63176;52.678;13.250;2022-09-09T03:12:51;14.10;99.90
7290;DHT22;63176;52.678;13.250;2022-09-09T03:15:16;14.10;99.90
7290;DHT22;63176;52.678;13.250;2022-09-09T03:17:42;14.10;99.90
7290;DHT22;63176;52.678;13.250;2022-09-09T03:20:08;14.10;99.90
7290;DHT22;63176;52.678;13.250;2022-09-09T03:22:34;14.10;99.90
7290;DHT22;63176;52.678;13.250;2022-09-09T03:25:00;14.10;99.90
7290;DHT22;63176;52.678;13.250;2022-09-09T03:27:28;14.10;99.90
7290;DHT22;63176;52.678;13.250;2022-09-09T03:29:54;14.00;99.90
7290;DHT22;63176;52.678;13.250;2022-09-09T03:32:20;14.00;99.90
7290;DHT22;63176;52.678;13.250;2022-09-09T03:34:48;14.00;99.90
7290;DHT22;63176;52.678;13.250;2022-09-09T03:37:15;14.00;99.90
7290;DHT22;63176;52.678;13.250;2022-09-09T03:39:41;14.00;99.90
7290;DHT22;63176;52.678;13.250;2022-09-09T03:42:07;14.00;99.90
7290;DHT22;63176;52.678;13.250;2022-09-09T03:44:32;14.00;99.90
7290;DHT22;63176;52.678;13.250;2022-09-09T03:46:58;13.90;99.90
7290;DHT22;63176;52.678;13.250;2022-09-09T03:49:26;13.90;99.90
7290;DHT22;63176;52.678;13.250;2022-09-09T03:51:55;13.90;99.90
7290;DHT22;63176;52.678;13.250;2022-09-09T03:54:22;13.90;99.90
7290;DHT22;63176;52.678;13.250;2022-09-09T03:56:48;13.90;99.90
7290;DHT22;63176;52.678;13.250;2022-09-09T03:59:13;13.90;99.90
7290;DHT22;63176;52.678;13.250;2022-09-09T04:01:39;13.90;99.90
7290;DHT22;63176;52.678;13.250;2022-09-09T04:04:05;13.90;99.90
7290;DHT22;63176;52.678;13.250;2022-09-09T04:06:31;13.80;99.90
7290;DHT22;63176;52.678;13.250;2022-09-09T04:08:56;13.80;99.90
7290;DHT22;63176;52.678;13.250;2022-09-09T04:11:22;13.80;99.90
7290;DHT22;63176;52.678;13.250;2022-09-09T04:13:48;13.80;99.90
7290;DHT22;63176;52.678;13.250;2022-09-09T04:16:14;13.80;99.90
7290;DHT22;63176;52.678;13.250;2022-09-09T04:18:41;13.80;99.90
7290;DHT22;63176;52.678;13.250;2022-09-09T04:21:08;13.80;99.90
7290;DHT22;63176;52.678;13.250;2022-09-09T04:23:34;13.80;99.90
7290;DHT22;63176;52.678;13.250;2022-09-09T04:26:01;13.80;99.90
7290;DHT22;63176;52.678;13.250;2022-09-09T04:28:29;13.80;99.90
7290;DHT22;63176;52.678;13.250;2022-09-09T04:30:55;13.70;99.90
7290;DHT22;63176;52.678;13.250;2022-09-09T04:33:24;13.80;99.90
7290;DHT22;63176;52.678;13.250;2022-09-09T04:35:52;13.80;99.90
7290;DHT22;63176;52.678;13.250;2022-09-09T04:38:19;13.80;99.90
7290;DHT22;63176;52.678;13.250;2022-09-09T04:40:48;13.70;99.90
7290;DHT22;63176;52.678;13.250;2022-09-09T04:43:15;13.70;99.90
7290;DHT22;63176;52.678;13.250;2022-09-09T04:45:42;13.60;99.90
7290;DHT22;63176;52.678;13.250;2022-09-09T04:48:08;13.60;99.90
7290;DHT22;63176;52.678;13.250;2022-09-09T04:50:35;13.60;99.90
7290;DHT22;63176;52.678;13.250;2022-09-09T04:53:04;13.70;99.90
7290;DHT22;63176;52.678;13.250;2022-09-09T04:55:31;13.70;99.90
7290;DHT22;63176;52.678;13.250;2022-09-09T04:57:57;13.70;99.90
7290;DHT22;63176;52.678;13.250;2022-09-09T05:00:24;13.70;99.90
7290;DHT22;63176;52.678;13.250;2022-09-09T05:02:49;13.70;99.90
7290;DHT22;63176;52.678;13.250;2022-09-09T05:05:16;13.70;99.90
7290;DHT22;63176;52.678;13.250;2022-09-09T05:07:42;13.70;99.90
7290;DHT22;63176;52.678;13.250;2022-09-09T05:10:09;13.70;99.90
7290;DHT22;63176;52.678;13.250;2022-09-09T05:12:35;13.70;99.90
7290;DHT22;63176;52.678;13.250;2022-09-09T05:15:01;13.70;99.90
7290;DHT22;63176;52.678;13.250;2022-09-09T05:17:27;13.80;99.90
7290;DHT22;63176;52.678;13.250;2022-09-09T05:19:53;13.80;99.90
7290;DHT22;63176;52.678;13.250;2022-09-09T05:22:22;13.80;99.90
7290;DHT22;63176;52.678;13.250;2022-09-09T05:24:49;13.90;99.90
7290;DHT22;63176;52.678;13.250;2022-09-09T05:27:19;14.00;99.90
7290;DHT22;63176;52.678;13.250;2022-09-09T05:29:45;14.00;99.90
7290;DHT22;63176;52.678;13.250;2022-09-09T05:32:11;14.10;99.90
7290;DHT22;63176;52.678;13.250;2022-09-09T05:34:37;14.10;99.90
7290;DHT22;63176;52.678;13.250;2022-09-09T05:37:05;14.20;99.90
7290;DHT22;63176;52.678;13.250;2022-09-09T05:39:33;14.30;99.90
7290;DHT22;63176;52.678;13.250;2022-09-09T05:41:59;14.30;99.90
7290;DHT22;63176;52.678;13.250;2022-09-09T05:44:24;14.30;99.90
7290;DHT22;63176;52.678;13.250;2022-09-09T05:46:53;14.30;99.90
7290;DHT22;63176;52.678;13.250;2022-09-09T05:49:19;14.40;99.90
7290;DHT22;63176;52.678;13.250;2022-09-09T05:51:45;14.40;99.90
7290;DHT22;63176;52.678;13.250;2022-09-09T05:54:11;14.50;99.90
7290;DHT22;63176;52.678;13.250;2022-09-09T05:56:40;14.60;99.90
7290;DHT22;63176;52.678;13.250;2022-09-09T05:59:06;14.60;99.90
7290;DHT22;63176;52.678;13.250;2022-09-09T06:01:34;14.70;99.90
7290;DHT22;63176;52.678;13.250;2022-09-09T06:04:00;14.70;99.90
7290;DHT22;63176;52.678;13.250;2022-09-09T06:06:30;14.80;99.90
7290;DHT22;63176;52.678;13.250;2022-09-09T06:08:56;14.80;99.90
7290;DHT22;63176;52.678;13.250;2022-09-09T06:11:30;14.90;99.90
7290;DHT22;63176;52.678;13.250;2022-09-09T06:13:59;14.90;99.90
7290;DHT22;63176;52.678;13.250;2022-09-09T06:16:27;15.00;99.90
7290;DHT22;63176;52.678;13.250;2022-09-09T06:18:54;15.00;99.90
7290;DHT22;63176;52.678;13.250;2022-09-09T06:21:21;15.10;99.90
7290;DHT22;63176;52.678;13.250;2022-09-09T06:23:47;15.20;99.90
7290;DHT22;63176;52.678;13.250;2022-09-09T06:26:21;15.20;99.90
7290;DHT22;63176;52.678;13.250;2022-09-09T06:28:48;15.30;99.90
7290;DHT22;63176;52.678;13.250;2022-09-09T06:31:17;15.40;1.00
7290;DHT22;63176;52.678;13.250;2022-09-09T06:33:43;15.40;1.00
7290;DHT22;63176;52.678;13.250;2022-09-09T06:36:16;15.50;1.00
7290;DHT22;63176;52.678;13.250;2022-09-09T06:38:44;15.60;1.00
7290;DHT22;63176;52.678;13.250;2022-09-09T06:41:11;15.70;1.00
7290;DHT22;63176;52.678;13.250;2022-09-09T06:43:37;15.80;1.00
7290;DHT22;63176;52.678;13.250;2022-09-09T06:46:18;15.90;1.00
7290;DHT22;63176;52.678;13.250;2022-09-09T06:48:45;16.00;1.00
7290;DHT22;63176;52.678;13.250;2022-09-09T06:51:19;16.10;1.00
7290;DHT22;63176;52.678;13.250;2022-09-09T06:53:47;16.10;1.00
7290;DHT22;63176;52.678;13.250;2022-09-09T06:56:25;16.20;1.00
7290;DHT22;63176;52.678;13.250;2022-09-09T06:58:51;16.30;1.00
7290;DHT22;63176;52.678;13.250;2022-09-09T07:01:19;16.40;1.00
7290;DHT22;63176;52.678;13.250;2022-09-09T07:03:48;16.40;99.90
7290;DHT22;63176;52.678;13.250;2022-09-09T07:06:23;16.50;99.90
7290;DHT22;63176;52.678;13.250;2022-09-09T07:08:54;16.60;99.90
7290;DHT22;63176;52.678;13.250;2022-09-09T07:11:21;16.70;99.90
7290;DHT22;63176;52.678;13.250;2022-09-09T07:13:48;16.80;99.90
7290;DHT22;63176;52.678;13.250;2022-09-09T07:16:16;16.90;99.90
7290;DHT22;63176;52.678;13.250;2022-09-09T07:18:43;16.90;99.90
7290;DHT22;63176;52.678;13.250;2022-09-09T07:21:10;17.00;99.90
7290;DHT22;63176;52.678;13.250;2022-09-09T07:23:37;17.10;99.90
7290;DHT22;63176;52.678;13.250;2022-09-09T07:26:11;17.20;99.90
7290;DHT22;63176;52.678;13.250;2022-09-09T07:28:37;17.20;99.90
7290;DHT22;63176;52.678;13.250;2022-09-09T07:31:04;17.30;99.90
7290;DHT22;63176;52.678;13.250;2022-09-09T07:33:32;17.40;99.90
7290;DHT22;63176;52.678;13.250;2022-09-09T07:36:14;17.40;99.90
7290;DHT22;63176;52.678;13.250;2022-09-09T07:38:50;17.40;99.90
7290;DHT22;63176;52.678;13.250;2022-09-09T07:41:23;17.40;99.90
7290;DHT22;63176;52.678;13.250;2022-09-09T07:43:49;17.50;99.90
7290;DHT22;63176;52.678;13.250;2022-09-09T07:46:17;17.60;99.90
7290;DHT22;63176;52.678;13.250;2022-09-09T07:48:47;17.80;99.90
7290;DHT22;63176;52.678;13.250;2022-09-09T07:51:18;17.80;99.90
7290;DHT22;63176;52.678;13.250;2022-09-09T07:53:46;17.80;99.90
7290;DHT22;63176;52.678;13.250;2022-09-09T07:56:17;17.80;99.90
7290;DHT22;63176;52.678;13.250;2022-09-09T07:58:45;17.80;99.90
7290;DHT22;63176;52.678;13.250;2022-09-09T08:01:15;17.80;99.90
7290;DHT22;63176;52.678;13.250;2022-09-09T08:03:43;17.80;99.90
7290;DHT22;63176;52.678;13.250;2022-09-09T08:06:10;17.80;99.90
7290;DHT22;63176;52.678;13.250;2022-09-09T08:08:37;17.80;99.90
7290;DHT22;63176;52.678;13.250;2022-09-09T08:11:14;17.90;99.90
7290;DHT22;63176;52.678;13.250;2022-09-09T08:13:41;18.00;99.90
7290;DHT22;63176;52.678;13.250;2022-09-09T08:16:19;18.20;99.90
7290;DHT22;63176;52.678;13.250;2022-09-09T08:18:47;18.30;99.90
7290;DHT22;63176;52.678;13.250;2022-09-09T08:21:19;18.40;99.90
7290;DHT22;63176;52.678;13.250;2022-09-09T08:23:47;18.40;99.90
7290;DHT22;63176;52.678;13.250;2022-09-09T08:26:21;18.50;99.90
7290;DHT22;63176;52.678;13.250;2022-09-09T08:28:48;18.60;99.90
7290;DHT22;63176;52.678;13.250;2022-09-09T08:31:23;18.70;99.90
7290;DHT22;63176;52.678;13.250;2022-09-09T08:33:49;18.80;99.90
7290;DHT22;63176;52.678;13.250;2022-09-09T08:36:17;18.90;99.90
7290;DHT22;63176;52.678;13.250;2022-09-09T08:38:46;19.10;99.90
7290;DHT22;63176;52.678;13.250;2022-09-09T08:52:18;19.60;99.90
7290;DHT22;63176;52.678;13.250;2022-09-09T08:54:46;19.60;99.90
7290;DHT22;63176;52.678;13.250;2022-09-09T08:57:16;19.70;99.90
7290;DHT22;63176;52.678;13.250;2022-09-09T08:59:43;19.70;99.90
7290;DHT22;63176;52.678;13.250;2022-09-09T09:02:24;19.70;99.90
7290;DHT22;63176;52.678;13.250;2022-09-09T09:05:01;19.80;99.90
7290;DHT22;63176;52.678;13.250;2022-09-09T09:12:58;19.80;99.90
7290;DHT22;63176;52.678;13.250;2022-09-09T09:15:31;19.80;99.90
7290;DHT22;63176;52.678;13.250;2022-09-09T09:17:59;19.80;99.90
7290;DHT22;63176;52.678;13.250;2022-09-09T09:21:24;19.70;99.90
7290;DHT22;63176;52.678;13.250;2022-09-09T09:24:06;19.70;99.90
7290;DHT22;63176;52.678;13.250;2022-09-09T09:26:35;19.60;99.90
7290;DHT22;63176;52.678;13.250;2022-09-09T09:29:12;19.60;99.90
7290;DHT22;63176;52.678;13.250;2022-09-09T09:31:38;19.70;99.90
7290;DHT22;63176;52.678;13.250;2022-09-09T09:34:03;19.90;99.90
7290;DHT22;63176;52.678;13.250;2022-09-09T09:36:41;20.40;99.90
7290;DHT22;63176;52.678;13.250;2022-09-09T09:39:08;20.70;99.90
7290;DHT22;63176;52.678;13.250;2022-09-09T09:41:38;20.80;99.90
7290;DHT22;63176;52.678;13.250;2022-09-09T09:44:18;21.00;99.90
7290;DHT22;63176;52.678;13.250;2022-09-09T09:46:47;21.50;99.90
7290;DHT22;63176;52.678;13.250;2022-09-09T09:49:12;22.50;99.90
7290;DHT22;63176;52.678;13.250;2022-09-09T09:51:39;23.70;99.90
7290;DHT22;63176;52.678;13.250;2022-09-09T09:54:27;24.90;99.90
7290;DHT22;63176;52.678;13.250;2022-09-09T09:56:54;25.90;99.90
7290;DHT22;63176;52.678;13.250;2022-09-09T10:01:45;27.20;99.90
7290;DHT22;63176;52.678;13.250;2022-09-09T10:04:18;27.30;99.90
7290;DHT22;63176;52.678;13.250;2022-09-09T10:06:46;27.40;99.90
7290;DHT22;63176;52.678;13.250;2022-09-09T10:09:29;27.70;99.90
7290;DHT22;63176;52.678;13.250;2022-09-09T10:17:23;27.50;99.90
7290;DHT22;63176;52.678;13.250;2022-09-09T10:20:29;27.40;99.90
7290;DHT22;63176;52.678;13.250;2022-09-09T10:23:29;27.10;99.90
7290;DHT22;63176;52.678;13.250;2022-09-09T10:34:28;25.20;99.90
7290;DHT22;63176;52.678;13.250;2022-09-09T10:36:59;25.10;99.90
7290;DHT22;63176;52.678;13.250;2022-09-09T10:47:39;25.40;99.90
7290;DHT22;63176;52.678;13.250;2022-09-09T10:55:38;25.50;99.90
7290;DHT22;63176;52.678;13.250;2022-09-09T10:58:05;25.60;99.90
7290;DHT22;63176;52.678;13.250;2022-09-09T11:03:03;25.90;99.90
7290;DHT22;63176;52.678;13.250;2022-09-09T11:05:43;26.10;99.90
7290;DHT22;63176;52.678;13.250;2022-09-09T11:08:30;26.30;99.90
7290;DHT22;63176;52.678;13.250;2022-09-09T11:11:01;26.40;99.90
7290;DHT22;63176;52.678;13.250;2022-09-09T11:14:11;26.40;99.90
7290;DHT22;63176;52.678;13.250;2022-09-09T11:16:49;26.20;99.90
7290;DHT22;63176;52.678;13.250;2022-09-09T11:19:24;26.00;99.90
7290;DHT22;63176;52.678;13.250;2022-09-09T11:21:53;26.00;99.90
7290;DHT22;63176;52.678;13.250;2022-09-09T11:24:35;25.80;99.90
7290;DHT22;63176;52.678;13.250;2022-09-09T11:27:16;25.70;99.90
7290;DHT22;63176;52.678;13.250;2022-09-09T11:35:38;25.50;99.90
7290;DHT22;63176;52.678;13.250;2022-09-09T11:41:02;25.60;99.90
7290;DHT22;63176;52.678;13.250;2022-09-09T11:43:46;25.90;99.90
7290;DHT22;63176;52.678;13.250;2022-09-09T11:46:15;26.10;99.90
7290;DHT22;63176;52.678;13.250;2022-09-09T11:48:56;26.40;99.90
7290;DHT22;63176;52.678;13.250;2022-09-09T11:51:26;26.60;99.90
7290;DHT22;63176;52.678;13.250;2022-09-09T11:53:55;26.80;99.90
7290;DHT22;63176;52.678;13.250;2022-09-09T11:56:32;26.90;99.90
7290;DHT22;63176;52.678;13.250;2022-09-09T11:59:00;27.20;99.90
7290;DHT22;63176;52.678;13.250;2022-09-09T12:07:05;27.00;99.90
7290;DHT22;63176;52.678;13.250;2022-09-09T12:09:43;26.70;99.90
7290;DHT22;63176;52.678;13.250;2022-09-09T12:17:23;27.10;99.90
7290;DHT22;63176;52.678;13.250;2022-09-09T12:20:22;27.30;99.90
7290;DHT22;63176;52.678;13.250;2022-09-09T12:35:00;27.30;99.90
7290;DHT22;63176;52.678;13.250;2022-09-09T12:40:27;27.20;99.90
7290;DHT22;63176;52.678;13.250;2022-09-09T12:42:53;27.40;99.90
7290;DHT22;63176;52.678;13.250;2022-09-09T12:45:25;27.60;99.90
7290;DHT22;63176;52.678;13.250;2022-09-09T12:48:01;27.90;99.90
7290;DHT22;63176;52.678;13.250;2022-09-09T12:50:35;27.80;99.90
7290;DHT22;63176;52.678;13.250;2022-09-09T12:53:06;27.50;99.90
7290;DHT22;63176;52.678;13.250;2022-09-09T12:55:37;27.10;99.90
7290;DHT22;63176;52.678;13.250;2022-09-09T12:58:04;26.60;99.90
7290;DHT22;63176;52.678;13.250;2022-09-09T13:00:32;26.30;99.90
7290;DHT22;63176;52.678;13.250;2022-09-09T13:03:13;26.00;99.90
7290;DHT22;63176;52.678;13.250;2022-09-09T13:05:40;25.70;99.90
7290;DHT22;63176;52.678;13.250;2022-09-09T13:08:10;25.50;99.90
7290;DHT22;63176;52.678;13.250;2022-09-09T13:10:48;25.20;99.90
7290;DHT22;63176;52.678;13.250;2022-09-09T13:13:17;25.10;99.90
7290;DHT22;63176;52.678;13.250;2022-09-09T13:15:52;24.90;99.90
7290;DHT22;63176;52.678;13.250;2022-09-09T13:18:22;24.70;99.90
7290;DHT22;63176;52.678;13.250;2022-09-09T13:20:49;24.50;99.90
7290;DHT22;63176;52.678;13.250;2022-09-09T13:23:16;24.40;99.90
7290;DHT22;63176;52.678;13.250;2022-09-09T13:26:00;24.20;99.90
7290;DHT22;63176;52.678;13.250;2022-09-09T13:28:28;24.10;99.90
7290;DHT22;63176;52.678;13.250;2022-09-09T13:31:02;24.00;99.90
7290;DHT22;63176;52.678;13.250;2022-09-09T13:33:36;23.90;99.90
7290;DHT22;63176;52.678;13.250;2022-09-09T13:36:09;23.80;99.90
7290;DHT22;63176;52.678;13.250;2022-09-09T13:42:05;23.60;99.90
7290;DHT22;63176;52.678;13.250;2022-09-09T13:44:05;23.50;99.90
7290;DHT22;63176;52.678;13.250;2022-09-09T13:46:38;23.40;99.90
7290;DHT22;63176;52.678;13.250;2022-09-09T13:51:42;23.30;99.90
7290;DHT22;63176;52.678;13.250;2022-09-09T13:54:11;23.30;99.90
7290;DHT22;63176;52.678;13.250;2022-09-09T13:56:39;23.20;99.90
7290;DHT22;63176;52.678;13.250;2022-09-09T13:59:06;23.20;99.90
7290;DHT22;63176;52.678;13.250;2022-09-09T14:01:34;23.10;99.90
7290;DHT22;63176;52.678;13.250;2022-09-09T14:04:00;23.00;99.90
7290;DHT22;63176;52.678;13.250;2022-09-09T14:06:26;23.00;99.90
7290;DHT22;63176;52.678;13.250;2022-09-09T14:08:53;22.90;99.90
7290;DHT22;63176;52.678;13.250;2022-09-09T14:11:20;22.90;99.90
7290;DHT22;63176;52.678;13.250;2022-09-09T14:13:47;22.80;99.90
7290;DHT22;63176;52.678;13.250;2022-09-09T14:16:18;22.80;99.90
7290;DHT22;63176;52.678;13.250;2022-09-09T14:18:45;22.70;99.90
7290;DHT22;63176;52.678;13.250;2022-09-09T14:21:11;22.60;99.90
7290;DHT22;63176;52.678;13.250;2022-09-09T14:23:37;22.60;99.90
7290;DHT22;63176;52.678;13.250;2022-09-09T14:26:04;22.50;99.90
7290;DHT22;63176;52.678;13.250;2022-09-09T14:28:31;22.50;99.90
7290;DHT22;63176;52.678;13.250;2022-09-09T14:31:00;22.50;99.90
7290;DHT22;63176;52.678;13.250;2022-09-09T14:33:26;22.50;99.90
7290;DHT22;63176;52.678;13.250;2022-09-09T14:36:01;22.60;99.90
7290;DHT22;63176;52.678;13.250;2022-09-09T14:38:35;22.80;99.90
7290;DHT22;63176;52.678;13.250;2022-09-09T14:41:13;23.00;99.90
7290;DHT22;63176;52.678;13.250;2022-09-09T14:43:42;23.10;99.90
7290;DHT22;63176;52.678;13.250;2022-09-09T14:46:19;23.10;99.90
7290;DHT22;63176;52.678;13.250;2022-09-09T14:48:45;23.10;99.90
7290;DHT22;63176;52.678;13.250;2022-09-09T14:51:14;23.10;99.90
7290;DHT22;63176;52.678;13.250;2022-09-09T14:53:42;23.10;99.90
7290;DHT22;63176;52.678;13.250;2022-09-09T14:56:11;23.10;99.90
7290;DHT22;63176;52.678;13.250;2022-09-09T14:58:37;23.20;99.90
7290;DHT22;63176;52.678;13.250;2022-09-09T15:01:15;23.20;99.90
7290;DHT22;63176;52.678;13.250;2022-09-09T15:03:42;23.10;99.90
7290;DHT22;63176;52.678;13.250;2022-09-09T15:06:13;23.10;99.90
7290;DHT22;63176;52.678;13.250;2022-09-09T15:08:43;23.00;99.90
7290;DHT22;63176;52.678;13.250;2022-09-09T15:11:10;22.90;99.90
7290;DHT22;63176;52.678;13.250;2022-09-09T15:13:38;23.00;99.90
7290;DHT22;63176;52.678;13.250;2022-09-09T15:16:12;22.80;99.90
7290;DHT22;63176;52.678;13.250;2022-09-09T15:18:39;22.70;99.90
7290;DHT22;63176;52.678;13.250;2022-09-09T15:21:13;22.60;99.90
7290;DHT22;63176;52.678;13.250;2022-09-09T15:23:39;22.60;99.90
7290;DHT22;63176;52.678;13.250;2022-09-09T15:26:05;22.70;99.90
7290;DHT22;63176;52.678;13.250;2022-09-09T15:28:32;22.70;99.90
7290;DHT22;63176;52.678;13.250;2022-09-09T15:31:09;22.80;99.90
7290;DHT22;63176;52.678;13.250;2022-09-09T15:33:36;22.90;99.90
7290;DHT22;63176;52.678;13.250;2022-09-09T15:36:40;23.00;99.90
7290;DHT22;63176;52.678;13.250;2022-09-09T15:39:09;23.00;99.90
7290;DHT22;63176;52.678;13.250;2022-09-09T15:41:38;22.90;99.90
7290;DHT22;63176;52.678;13.250;2022-09-09T15:44:04;22.90;99.90
7290;DHT22;63176;52.678;13.250;2022-09-09T15:46:35;22.80;99.90
7290;DHT22;63176;52.678;13.250;2022-09-09T15:51:42;22.50;99.90
7290;DHT22;63176;52.678;13.250;2022-09-09T15:54:10;22.30;99.90
7290;DHT22;63176;52.678;13.250;2022-09-09T15:56:37;22.10;99.90
7290;DHT22;63176;52.678;13.250;2022-09-09T15:59:03;22.00;99.90
7290;DHT22;63176;52.678;13.250;2022-09-09T16:01:30;21.90;99.90
7290;DHT22;63176;52.678;13.250;2022-09-09T16:03:57;21.70;99.90
7290;DHT22;63176;52.678;13.250;2022-09-09T16:06:24;21.60;99.90
7290;DHT22;63176;52.678;13.250;2022-09-09T16:08:51;21.50;99.90
7290;DHT22;63176;52.678;13.250;2022-09-09T16:11:20;21.40;99.90
7290;DHT22;63176;52.678;13.250;2022-09-09T16:13:48;21.30;99.90
7290;DHT22;63176;52.678;13.250;2022-09-09T16:16:16;21.20;99.90
7290;DHT22;63176;52.678;13.250;2022-09-09T16:18:46;21.10;99.90
7290;DHT22;63176;52.678;13.250;2022-09-09T16:21:15;21.00;99.90
7290;DHT22;63176;52.678;13.250;2022-09-09T16:23:41;20.90;99.90
7290;DHT22;63176;52.678;13.250;2022-09-09T16:26:10;20.90;99.90
7290;DHT22;63176;52.678;13.250;2022-09-09T16:28:36;20.80;99.90
7290;DHT22;63176;52.678;13.250;2022-09-09T16:31:07;20.70;99.90
7290;DHT22;63176;52.678;13.250;2022-09-09T16:33:35;20.70;99.90
7290;DHT22;63176;52.678;13.250;2022-09-09T16:36:09;20.60;99.90
7290;DHT22;63176;52.678;13.250;2022-09-09T16:38:36;20.60;99.90
7290;DHT22;63176;52.678;13.250;2022-09-09T16:41:03;20.60;99.90
7290;DHT22;63176;52.678;13.250;2022-09-09T16:43:31;20.50;99.90
7290;DHT22;63176;52.678;13.250;2022-09-09T16:45:57;20.40;99.90
7290;DHT22;63176;52.678;13.250;2022-09-09T16:48:31;20.40;99.90
7290;DHT22;63176;52.678;13.250;2022-09-09T16:51:06;20.40;99.90
7290;DHT22;63176;52.678;13.250;2022-09-09T16:53:33;20.20;99.90
7290;DHT22;63176;52.678;13.250;2022-09-09T16:56:05;20.10;99.90
7290;DHT22;63176;52.678;13.250;2022-09-09T16:58:31;20.10;99.90
7290;DHT22;63176;52.678;13.250;2022-09-09T17:00:58;20.00;99.90
7290;DHT22;63176;52.678;13.250;2022-09-09T17:03:24;20.00;99.90
7290;DHT22;63176;52.678;13.250;2022-09-09T17:05:50;19.90;99.90
7290;DHT22;63176;52.678;13.250;2022-09-09T17:08:16;19.80;99.90
7290;DHT22;63176;52.678;13.250;2022-09-09T17:10:42;19.80;99.90
7290;DHT22;63176;52.678;13.250;2022-09-09T17:13:08;19.70;99.90
7290;DHT22;63176;52.678;13.250;2022-09-09T17:15:40;19.60;99.90
7290;DHT22;63176;52.678;13.250;2022-09-09T17:18:11;19.60;99.90
7290;DHT22;63176;52.678;13.250;2022-09-09T17:20:40;19.50;99.90
7290;DHT22;63176;52.678;13.250;2022-09-09T17:23:07;19.40;99.90
7290;DHT22;63176;52.678;13.250;2022-09-09T17:25:33;19.40;99.90
7290;DHT22;63176;52.678;13.250;2022-09-09T17:28:00;19.30;99.90
7290;DHT22;63176;52.678;13.250;2022-09-09T17:30:27;19.40;99.90
7290;DHT22;63176;52.678;13.250;2022-09-09T17:32:53;19.30;99.90
7290;DHT22;63176;52.678;13.250;2022-09-09T17:35:19;19.20;99.90
7290;DHT22;63176;52.678;13.250;2022-09-09T17:37:44;19.10;99.90
7290;DHT22;63176;52.678;13.250;2022-09-09T17:40:10;19.10;99.90
7290;DHT22;63176;52.678;13.250;2022-09-09T17:42:36;19.00;99.90
7290;DHT22;63176;52.678;13.250;2022-09-09T17:45:03;19.00;99.90
7290;DHT22;63176;52.678;13.250;2022-09-09T17:47:28;19.00;99.90
7290;DHT22;63176;52.678;13.250;2022-09-09T17:49:56;18.90;99.90
7290;DHT22;63176;52.678;13.250;2022-09-09T17:52:22;18.90;99.90
7290;DHT22;63176;52.678;13.250;2022-09-09T17:54:48;18.90;99.90
7290;DHT22;63176;52.678;13.250;2022-09-09T17:57:15;18.90;99.90
7290;DHT22;63176;52.678;13.250;2022-09-09T17:59:42;18.90;99.90
7290;DHT22;63176;52.678;13.250;2022-09-09T18:02:11;18.80;99.90
7290;DHT22;63176;52.678;13.250;2022-09-09T18:04:36;18.80;99.90
7290;DHT22;63176;52.678;13.250;2022-09-09T18:07:03;18.80;99.90
7290;DHT22;63176;52.678;13.250;2022-09-09T18:09:30;18.80;99.90
7290;DHT22;63176;52.678;13.250;2022-09-09T18:11:57;18.70;99.90